METAR AND TAF INFORMATION
METAR FOR LIMC
ADDS - METARS form results

(2304 UTC 15 September 2019)
Data provider http://aviationweather.gov/metar/data/
 
METAR text: LIMC 152250Z 01005KT CAVOK 18/18 Q1022 NOSIG
Conditions at: LIMC (MILANO/MALPENSA , IT) observed 2250 UTC 15 September 2019
Temperature: 18.0°C (64°F)
Dewpoint: 18.0°C (64°F) [RH = 100%]
Pressure (altimeter): 30.18 inches Hg (1022.0 mb)
Winds: from the N (10 degrees) at 6 MPH (5 knots; 2.6 m/s)
Visibility: 6 or more miles (10+ km)
Ceiling: ceiling and visibility are OK
Clouds: unknown
Weather: no significant weather observed at this time

METAR text: LIMC 152220Z 36005KT CAVOK 19/18 Q1022 NOSIG
Conditions at: LIMC (MILANO/MALPENSA , IT) observed 2220 UTC 15 September 2019
Temperature: 19.0°C (66°F)
Dewpoint: 18.0°C (64°F) [RH = 94%]
Pressure (altimeter): 30.18 inches Hg (1022.0 mb)
Winds: from the N (360 degrees) at 6 MPH (5 knots; 2.6 m/s)
Visibility: 6 or more miles (10+ km)
Ceiling: ceiling and visibility are OK
Clouds: unknown
Weather: no significant weather observed at this time

Forecast for: LIMC (MILANO/MALPENSA , IT)
Text: TAF LIMC 151700Z 1518/1624 VRB05KT CAVOK
Forecast period: 1800 UTC 15 September 2019 to 0000 UTC 17 September 2019
Forecast type: FROM: standard forecast or significant change
Winds: variable direction winds at 6 MPH (5 knots; 2.6 m/s)
Visibility: 6 or more miles 10+ km)
Ceiling: unknown
Clouds: missing
Weather: NSW  (no significant weather)
Text: TEMPO 1602/1606 4000 BR
Forecast period: 0200 to 0600 UTC 16 September 2019
Forecast type: TEMPORARY: The following changes expected for less than half the time period
Visibility: 2.49 miles (4.01 km)
Ceiling: unknown
Clouds: missing
Weather: BR  (mist)

 AIRPORT MAP

 RUNWAY INFORMATION

 AIRPORT FREQUENCIES
Type APP Name MILANO APP Frequency 132.7 MHZ
Type ATIS Name ATIS Frequency 120.025 MHZ
Type CLD Name CLNC DEL Frequency 120.9 MHZ
Type DEP Name MILANO DEP Frequency 126.75 MHZ
Type GND Name GND Frequency 121.9 MHZ
Type TWR Name TWR Frequency 119 MHZ

 AIRPORT NEAR NAVIGATION AIDS
Type VOR-DME Name Malpensa Frequency 111200 KHZ
Type NDB Name Malpensa Frequency 364 KHZ



2018 Air Astana Virtual Airline